Terminal Aerodrome Forecast
Issued by NWS Memphis, TN

Home | Current Version | Previous Version | Text Only | Print | Product List | Glossary On
Versions: 1 2 3 4 5 6 7 8 9 10 11 12 13 14
183
FTUS44 KMEG 291137
TAFMKL
TAF
KMKL 291137Z 2912/3012 30006KT P6SM SKC
     FM291500 33011KT P6SM BKN025
     FM291900 34012G20KT P6SM OVC035
     FM300200 34002KT P6SM FEW015 BKN040
     FM300700 00000KT 1SM BR OVC005
      AMD NOT SKED=

USA.gov is the U.S. government's official web portal to all federal, state and local government web resources and services.